sensor_id;sensor_type;location;lat;lon;timestamp;P1;durP1;ratioP1;P2;durP2;ratioP2
54121;SDS011;40029;58.708;50.190;2023-05-07T00:00:02;0.17;;;0.17;;
54121;SDS011;40029;58.708;50.190;2023-05-07T00:02:40;0.20;;;0.20;;
54121;SDS011;40029;58.708;50.190;2023-05-07T00:05:12;0.82;;;0.15;;
54121;SDS011;40029;58.708;50.190;2023-05-07T00:07:43;0.20;;;0.20;;
54121;SDS011;40029;58.708;50.190;2023-05-07T00:10:14;0.20;;;0.20;;
54121;SDS011;40029;58.708;50.190;2023-05-07T00:13:04;0.10;;;0.10;;
54121;SDS011;40029;58.708;50.190;2023-05-07T00:15:35;0.10;;;0.10;;
54121;SDS011;40029;58.708;50.190;2023-05-07T00:18:06;0.15;;;0.10;;
54121;SDS011;40029;58.708;50.190;2023-05-07T00:20:37;0.10;;;0.10;;
54121;SDS011;40029;58.708;50.190;2023-05-07T00:23:09;0.60;;;0.30;;
54121;SDS011;40029;58.708;50.190;2023-05-07T00:25:40;2.50;;;0.30;;
54121;SDS011;40029;58.708;50.190;2023-05-07T00:28:11;0.10;;;0.10;;
54121;SDS011;40029;58.708;50.190;2023-05-07T00:30:42;0.30;;;0.10;;
54121;SDS011;40029;58.708;50.190;2023-05-07T00:33:13;0.52;;;0.20;;
54121;SDS011;40029;58.708;50.190;2023-05-07T00:35:45;0.20;;;0.20;;
54121;SDS011;40029;58.708;50.190;2023-05-07T00:38:34;1.45;;;0.30;;
54121;SDS011;40029;58.708;50.190;2023-05-07T00:41:05;0.10;;;0.10;;
54121;SDS011;40029;58.708;50.190;2023-05-07T00:43:37;0.10;;;0.10;;
54121;SDS011;40029;58.708;50.190;2023-05-07T00:46:08;1.98;;;0.10;;
54121;SDS011;40029;58.708;50.190;2023-05-07T00:48:41;0.20;;;0.20;;
54121;SDS011;40029;58.708;50.190;2023-05-07T00:51:12;0.20;;;0.20;;
54121;SDS011;40029;58.708;50.190;2023-05-07T00:53:44;0.20;;;0.20;;
54121;SDS011;40029;58.708;50.190;2023-05-07T00:56:15;1.65;;;0.10;;
54121;SDS011;40029;58.708;50.190;2023-05-07T00:58:48;0.10;;;0.10;;
54121;SDS011;40029;58.708;50.190;2023-05-07T01:01:19;0.10;;;0.10;;
54121;SDS011;40029;58.708;50.190;2023-05-07T01:03:51;0.10;;;0.10;;
54121;SDS011;40029;58.708;50.190;2023-05-07T01:06:22;0.32;;;0.20;;
54121;SDS011;40029;58.708;50.190;2023-05-07T01:11:28;0.10;;;0.10;;
54121;SDS011;40029;58.708;50.190;2023-05-07T01:13:59;0.30;;;0.20;;
54121;SDS011;40029;58.708;50.190;2023-05-07T01:16:31;0.20;;;0.10;;
54121;SDS011;40029;58.708;50.190;2023-05-07T01:19:02;3.53;;;0.13;;
54121;SDS011;40029;58.708;50.190;2023-05-07T01:21:34;0.20;;;0.15;;
54121;SDS011;40029;58.708;50.190;2023-05-07T01:24:09;0.10;;;0.10;;
54121;SDS011;40029;58.708;50.190;2023-05-07T01:26:42;0.65;;;0.30;;
54121;SDS011;40029;58.708;50.190;2023-05-07T01:29:17;2.17;;;0.20;;
54121;SDS011;40029;58.708;50.190;2023-05-07T01:31:49;0.30;;;0.20;;
54121;SDS011;40029;58.708;50.190;2023-05-07T01:34:22;0.17;;;0.17;;
54121;SDS011;40029;58.708;50.190;2023-05-07T01:36:55;0.30;;;0.20;;
54121;SDS011;40029;58.708;50.190;2023-05-07T01:39:29;0.20;;;0.10;;
54121;SDS011;40029;58.708;50.190;2023-05-07T01:42:01;0.20;;;0.20;;
54121;SDS011;40029;58.708;50.190;2023-05-07T01:44:33;0.25;;;0.25;;
54121;SDS011;40029;58.708;50.190;2023-05-07T01:47:04;1.65;;;0.20;;
54121;SDS011;40029;58.708;50.190;2023-05-07T01:49:37;0.20;;;0.20;;
54121;SDS011;40029;58.708;50.190;2023-05-07T01:52:27;0.20;;;0.20;;
54121;SDS011;40029;58.708;50.190;2023-05-07T01:54:59;0.50;;;0.22;;
54121;SDS011;40029;58.708;50.190;2023-05-07T01:57:49;0.30;;;0.25;;
54121;SDS011;40029;58.708;50.190;2023-05-07T02:00:21;0.17;;;0.17;;
54121;SDS011;40029;58.708;50.190;2023-05-07T02:02:52;0.20;;;0.20;;
54121;SDS011;40029;58.708;50.190;2023-05-07T02:05:42;0.47;;;0.10;;
54121;SDS011;40029;58.708;50.190;2023-05-07T02:08:23;0.20;;;0.20;;
54121;SDS011;40029;58.708;50.190;2023-05-07T02:10:55;2.10;;;0.20;;
54121;SDS011;40029;58.708;50.190;2023-05-07T02:13:28;0.47;;;0.40;;
54121;SDS011;40029;58.708;50.190;2023-05-07T02:16:01;0.20;;;0.20;;
54121;SDS011;40029;58.708;50.190;2023-05-07T02:18:33;0.20;;;0.20;;
54121;SDS011;40029;58.708;50.190;2023-05-07T02:21:06;0.47;;;0.20;;
54121;SDS011;40029;58.708;50.190;2023-05-07T02:23:37;0.45;;;0.17;;
54121;SDS011;40029;58.708;50.190;2023-05-07T02:26:10;0.30;;;0.20;;
54121;SDS011;40029;58.708;50.190;2023-05-07T02:28:42;0.20;;;0.20;;
54121;SDS011;40029;58.708;50.190;2023-05-07T02:31:14;0.22;;;0.22;;
54121;SDS011;40029;58.708;50.190;2023-05-07T02:33:45;0.57;;;0.20;;
54121;SDS011;40029;58.708;50.190;2023-05-07T02:36:17;0.30;;;0.30;;
54121;SDS011;40029;58.708;50.190;2023-05-07T02:39:03;0.38;;;0.20;;
54121;SDS011;40029;58.708;50.190;2023-05-07T02:41:35;0.50;;;0.30;;
54121;SDS011;40029;58.708;50.190;2023-05-07T02:44:06;0.30;;;0.30;;
54121;SDS011;40029;58.708;50.190;2023-05-07T02:46:38;0.63;;;0.25;;
54121;SDS011;40029;58.708;50.190;2023-05-07T02:49:13;0.22;;;0.22;;
54121;SDS011;40029;58.708;50.190;2023-05-07T02:51:44;0.40;;;0.30;;
54121;SDS011;40029;58.708;50.190;2023-05-07T02:54:22;3.90;;;0.40;;
54121;SDS011;40029;58.708;50.190;2023-05-07T02:56:58;0.55;;;0.30;;
54121;SDS011;40029;58.708;50.190;2023-05-07T02:59:29;0.73;;;0.20;;
54121;SDS011;40029;58.708;50.190;2023-05-07T03:02:01;4.13;;;0.40;;
54121;SDS011;40029;58.708;50.190;2023-05-07T03:04:33;0.68;;;0.50;;
54121;SDS011;40029;58.708;50.190;2023-05-07T03:07:04;0.50;;;0.43;;
54121;SDS011;40029;58.708;50.190;2023-05-07T03:09:36;0.77;;;0.47;;
54121;SDS011;40029;58.708;50.190;2023-05-07T03:12:07;0.45;;;0.32;;
54121;SDS011;40029;58.708;50.190;2023-05-07T03:14:39;0.40;;;0.30;;
54121;SDS011;40029;58.708;50.190;2023-05-07T03:17:10;0.82;;;0.38;;
54121;SDS011;40029;58.708;50.190;2023-05-07T03:19:41;0.40;;;0.40;;
54121;SDS011;40029;58.708;50.190;2023-05-07T03:22:12;0.35;;;0.35;;
54121;SDS011;40029;58.708;50.190;2023-05-07T03:24:44;1.30;;;0.30;;
54121;SDS011;40029;58.708;50.190;2023-05-07T03:27:15;0.20;;;0.20;;
54121;SDS011;40029;58.708;50.190;2023-05-07T03:29:47;1.48;;;0.60;;
54121;SDS011;40029;58.708;50.190;2023-05-07T03:32:36;2.85;;;0.40;;
54121;SDS011;40029;58.708;50.190;2023-05-07T03:35:12;0.57;;;0.40;;
54121;SDS011;40029;58.708;50.190;2023-05-07T03:37:44;0.85;;;0.38;;
54121;SDS011;40029;58.708;50.190;2023-05-07T03:40:17;0.50;;;0.40;;
54121;SDS011;40029;58.708;50.190;2023-05-07T03:42:52;7.35;;;0.70;;
54121;SDS011;40029;58.708;50.190;2023-05-07T03:45:27;0.50;;;0.40;;
54121;SDS011;40029;58.708;50.190;2023-05-07T03:48:09;0.40;;;0.40;;
54121;SDS011;40029;58.708;50.190;2023-05-07T03:50:41;0.32;;;0.30;;
54121;SDS011;40029;58.708;50.190;2023-05-07T03:53:12;0.90;;;0.52;;
54121;SDS011;40029;58.708;50.190;2023-05-07T03:55:44;0.52;;;0.30;;
54121;SDS011;40029;58.708;50.190;2023-05-07T03:58:15;1.08;;;0.50;;
54121;SDS011;40029;58.708;50.190;2023-05-07T04:00:47;0.50;;;0.30;;
54121;SDS011;40029;58.708;50.190;2023-05-07T04:03:30;0.52;;;0.30;;
54121;SDS011;40029;58.708;50.190;2023-05-07T04:06:03;0.40;;;0.40;;
54121;SDS011;40029;58.708;50.190;2023-05-07T04:08:37;2.05;;;0.70;;
54121;SDS011;40029;58.708;50.190;2023-05-07T04:11:10;0.40;;;0.40;;
54121;SDS011;40029;58.708;50.190;2023-05-07T04:13:42;1.45;;;0.77;;
54121;SDS011;40029;58.708;50.190;2023-05-07T04:16:14;1.13;;;0.68;;
54121;SDS011;40029;58.708;50.190;2023-05-07T04:18:45;1.13;;;0.50;;
54121;SDS011;40029;58.708;50.190;2023-05-07T04:21:17;1.95;;;0.40;;
54121;SDS011;40029;58.708;50.190;2023-05-07T04:23:49;1.10;;;0.50;;
54121;SDS011;40029;58.708;50.190;2023-05-07T04:26:20;0.77;;;0.50;;
54121;SDS011;40029;58.708;50.190;2023-05-07T04:28:52;0.60;;;0.50;;
54121;SDS011;40029;58.708;50.190;2023-05-07T04:31:23;1.08;;;0.70;;
54121;SDS011;40029;58.708;50.190;2023-05-07T04:36:29;1.30;;;0.50;;
54121;SDS011;40029;58.708;50.190;2023-05-07T04:39:07;0.60;;;0.43;;
54121;SDS011;40029;58.708;50.190;2023-05-07T04:41:39;0.82;;;0.40;;
54121;SDS011;40029;58.708;50.190;2023-05-07T04:44:11;0.65;;;0.47;;
54121;SDS011;40029;58.708;50.190;2023-05-07T04:47:01;1.92;;;0.70;;
54121;SDS011;40029;58.708;50.190;2023-05-07T04:49:33;0.57;;;0.50;;
54121;SDS011;40029;58.708;50.190;2023-05-07T04:52:04;1.02;;;0.40;;
54121;SDS011;40029;58.708;50.190;2023-05-07T04:54:36;0.68;;;0.50;;
54121;SDS011;40029;58.708;50.190;2023-05-07T04:57:07;1.27;;;0.57;;
54121;SDS011;40029;58.708;50.190;2023-05-07T04:59:57;1.75;;;0.60;;
54121;SDS011;40029;58.708;50.190;2023-05-07T05:02:28;0.45;;;0.40;;
54121;SDS011;40029;58.708;50.190;2023-05-07T05:05:00;1.92;;;0.73;;
54121;SDS011;40029;58.708;50.190;2023-05-07T05:07:36;0.63;;;0.52;;
54121;SDS011;40029;58.708;50.190;2023-05-07T05:10:26;0.60;;;0.40;;
54121;SDS011;40029;58.708;50.190;2023-05-07T05:12:57;0.60;;;0.50;;
54121;SDS011;40029;58.708;50.190;2023-05-07T05:15:30;1.02;;;0.50;;
54121;SDS011;40029;58.708;50.190;2023-05-07T05:18:01;2.25;;;1.00;;
54121;SDS011;40029;58.708;50.190;2023-05-07T05:20:33;1.92;;;0.47;;
54121;SDS011;40029;58.708;50.190;2023-05-07T05:23:04;0.60;;;0.60;;
54121;SDS011;40029;58.708;50.190;2023-05-07T05:25:37;1.52;;;0.60;;
54121;SDS011;40029;58.708;50.190;2023-05-07T05:28:09;1.38;;;0.60;;
54121;SDS011;40029;58.708;50.190;2023-05-07T05:30:41;5.40;;;1.27;;
54121;SDS011;40029;58.708;50.190;2023-05-07T05:33:31;4.57;;;1.70;;
54121;SDS011;40029;58.708;50.190;2023-05-07T05:36:08;2.92;;;1.15;;
54121;SDS011;40029;58.708;50.190;2023-05-07T05:38:42;1.13;;;0.50;;
54121;SDS011;40029;58.708;50.190;2023-05-07T05:41:15;10.10;;;2.80;;
54121;SDS011;40029;58.708;50.190;2023-05-07T05:43:46;3.35;;;1.42;;
54121;SDS011;40029;58.708;50.190;2023-05-07T05:46:18;5.78;;;0.80;;
54121;SDS011;40029;58.708;50.190;2023-05-07T05:48:49;1.60;;;0.77;;
54121;SDS011;40029;58.708;50.190;2023-05-07T05:51:21;2.33;;;1.00;;
54121;SDS011;40029;58.708;50.190;2023-05-07T05:53:53;3.92;;;1.52;;
54121;SDS011;40029;58.708;50.190;2023-05-07T05:56:25;1.33;;;0.50;;
54121;SDS011;40029;58.708;50.190;2023-05-07T05:58:57;2.67;;;1.30;;
54121;SDS011;40029;58.708;50.190;2023-05-07T06:01:29;5.65;;;2.58;;
54121;SDS011;40029;58.708;50.190;2023-05-07T06:04:03;6.22;;;1.83;;
54121;SDS011;40029;58.708;50.190;2023-05-07T06:06:34;2.33;;;1.65;;
54121;SDS011;40029;58.708;50.190;2023-05-07T06:09:07;1.20;;;0.82;;
54121;SDS011;40029;58.708;50.190;2023-05-07T06:11:45;0.90;;;0.68;;
54121;SDS011;40029;58.708;50.190;2023-05-07T06:14:18;0.90;;;0.70;;
54121;SDS011;40029;58.708;50.190;2023-05-07T06:16:50;0.88;;;0.63;;
54121;SDS011;40029;58.708;50.190;2023-05-07T06:19:21;0.50;;;0.45;;
54121;SDS011;40029;58.708;50.190;2023-05-07T06:21:57;0.45;;;0.43;;
54121;SDS011;40029;58.708;50.190;2023-05-07T06:24:29;2.90;;;1.48;;
54121;SDS011;40029;58.708;50.190;2023-05-07T06:27:00;2.47;;;1.73;;
54121;SDS011;40029;58.708;50.190;2023-05-07T06:29:33;3.22;;;1.15;;
54121;SDS011;40029;58.708;50.190;2023-05-07T06:32:06;1.58;;;0.52;;
54121;SDS011;40029;58.708;50.190;2023-05-07T06:34:46;0.60;;;0.47;;
54121;SDS011;40029;58.708;50.190;2023-05-07T06:37:19;0.73;;;0.43;;
54121;SDS011;40029;58.708;50.190;2023-05-07T06:40:00;0.80;;;0.70;;
54121;SDS011;40029;58.708;50.190;2023-05-07T06:42:35;0.65;;;0.60;;
54121;SDS011;40029;58.708;50.190;2023-05-07T06:45:25;4.18;;;1.08;;
54121;SDS011;40029;58.708;50.190;2023-05-07T06:47:58;1.42;;;1.05;;
54121;SDS011;40029;58.708;50.190;2023-05-07T06:50:32;1.52;;;1.20;;
54121;SDS011;40029;58.708;50.190;2023-05-07T06:53:03;4.30;;;0.65;;
54121;SDS011;40029;58.708;50.190;2023-05-07T06:55:34;1.48;;;0.93;;
54121;SDS011;40029;58.708;50.190;2023-05-07T06:58:05;1.40;;;0.98;;
54121;SDS011;40029;58.708;50.190;2023-05-07T07:00:37;1.70;;;1.52;;
54121;SDS011;40029;58.708;50.190;2023-05-07T07:03:08;3.97;;;1.67;;
54121;SDS011;40029;58.708;50.190;2023-05-07T07:05:41;3.92;;;2.15;;
54121;SDS011;40029;58.708;50.190;2023-05-07T07:08:31;4.57;;;1.55;;
54121;SDS011;40029;58.708;50.190;2023-05-07T07:11:02;7.30;;;3.53;;
54121;SDS011;40029;58.708;50.190;2023-05-07T07:13:34;2.53;;;1.10;;
54121;SDS011;40029;58.708;50.190;2023-05-07T07:16:05;7.53;;;1.55;;
54121;SDS011;40029;58.708;50.190;2023-05-07T07:18:55;2.28;;;1.10;;
54121;SDS011;40029;58.708;50.190;2023-05-07T07:21:26;2.88;;;1.23;;
54121;SDS011;40029;58.708;50.190;2023-05-07T07:23:58;2.63;;;1.58;;
54121;SDS011;40029;58.708;50.190;2023-05-07T07:26:29;2.17;;;1.13;;
54121;SDS011;40029;58.708;50.190;2023-05-07T07:29:01;1.70;;;1.17;;
54121;SDS011;40029;58.708;50.190;2023-05-07T07:31:33;3.35;;;1.10;;
54121;SDS011;40029;58.708;50.190;2023-05-07T07:34:23;0.85;;;0.60;;
54121;SDS011;40029;58.708;50.190;2023-05-07T07:36:54;2.97;;;0.43;;
54121;SDS011;40029;58.708;50.190;2023-05-07T07:39:28;1.08;;;0.50;;
54121;SDS011;40029;58.708;50.190;2023-05-07T07:42:00;1.77;;;0.82;;
54121;SDS011;40029;58.708;50.190;2023-05-07T07:44:50;3.75;;;1.58;;
54121;SDS011;40029;58.708;50.190;2023-05-07T07:49:57;4.10;;;2.38;;
54121;SDS011;40029;58.708;50.190;2023-05-07T07:52:28;6.15;;;2.67;;
54121;SDS011;40029;58.708;50.190;2023-05-07T07:55:00;3.13;;;1.63;;
54121;SDS011;40029;58.708;50.190;2023-05-07T08:00:06;5.05;;;3.15;;
54121;SDS011;40029;58.708;50.190;2023-05-07T08:02:47;4.70;;;2.13;;
54121;SDS011;40029;58.708;50.190;2023-05-07T08:05:26;5.85;;;2.10;;
54121;SDS011;40029;58.708;50.190;2023-05-07T08:07:57;1.80;;;1.20;;
54121;SDS011;40029;58.708;50.190;2023-05-07T08:10:34;3.35;;;0.98;;
54121;SDS011;40029;58.708;50.190;2023-05-07T08:13:10;4.15;;;1.83;;
54121;SDS011;40029;58.708;50.190;2023-05-07T08:15:43;1.48;;;0.70;;
54121;SDS011;40029;58.708;50.190;2023-05-07T08:18:16;1.30;;;0.70;;
54121;SDS011;40029;58.708;50.190;2023-05-07T08:20:49;1.40;;;0.70;;
54121;SDS011;40029;58.708;50.190;2023-05-07T08:23:24;1.98;;;1.27;;
54121;SDS011;40029;58.708;50.190;2023-05-07T08:25:57;1.63;;;0.80;;
54121;SDS011;40029;58.708;50.190;2023-05-07T08:28:46;1.77;;;0.98;;
54121;SDS011;40029;58.708;50.190;2023-05-07T08:31:18;1.40;;;0.90;;
54121;SDS011;40029;58.708;50.190;2023-05-07T08:33:50;3.10;;;1.33;;
54121;SDS011;40029;58.708;50.190;2023-05-07T08:36:21;0.75;;;0.55;;
54121;SDS011;40029;58.708;50.190;2023-05-07T08:38:52;3.22;;;1.63;;
54121;SDS011;40029;58.708;50.190;2023-05-07T08:41:24;6.38;;;3.22;;
54121;SDS011;40029;58.708;50.190;2023-05-07T08:43:56;9.93;;;4.18;;
54121;SDS011;40029;58.708;50.190;2023-05-07T08:46:31;11.52;;;5.28;;
54121;SDS011;40029;58.708;50.190;2023-05-07T08:49:03;11.65;;;5.07;;
54121;SDS011;40029;58.708;50.190;2023-05-07T08:51:35;6.35;;;3.60;;
54121;SDS011;40029;58.708;50.190;2023-05-07T08:54:08;18.38;;;5.82;;
54121;SDS011;40029;58.708;50.190;2023-05-07T08:56:41;7.57;;;3.58;;
54121;SDS011;40029;58.708;50.190;2023-05-07T08:59:12;12.25;;;6.38;;
54121;SDS011;40029;58.708;50.190;2023-05-07T09:01:46;7.72;;;4.53;;
54121;SDS011;40029;58.708;50.190;2023-05-07T09:04:19;7.18;;;3.97;;
54121;SDS011;40029;58.708;50.190;2023-05-07T09:06:51;7.43;;;3.78;;
54121;SDS011;40029;58.708;50.190;2023-05-07T09:09:24;2.08;;;1.83;;
54121;SDS011;40029;58.708;50.190;2023-05-07T09:11:59;3.80;;;2.88;;
54121;SDS011;40029;58.708;50.190;2023-05-07T09:14:32;3.43;;;1.93;;
54121;SDS011;40029;58.708;50.190;2023-05-07T09:17:22;4.50;;;2.38;;
54121;SDS011;40029;58.708;50.190;2023-05-07T09:19:53;9.98;;;6.18;;
54121;SDS011;40029;58.708;50.190;2023-05-07T09:22:25;5.68;;;1.25;;
54121;SDS011;40029;58.708;50.190;2023-05-07T09:25:08;21.58;;;9.77;;
54121;SDS011;40029;58.708;50.190;2023-05-07T09:27:58;9.23;;;4.50;;
54121;SDS011;40029;58.708;50.190;2023-05-07T09:30:31;3.50;;;2.50;;
54121;SDS011;40029;58.708;50.190;2023-05-07T09:33:05;5.63;;;2.17;;
54121;SDS011;40029;58.708;50.190;2023-05-07T09:35:40;4.57;;;1.23;;
54121;SDS011;40029;58.708;50.190;2023-05-07T09:38:17;1.80;;;1.00;;
54121;SDS011;40029;58.708;50.190;2023-05-07T09:41:10;3.25;;;1.20;;
54121;SDS011;40029;58.708;50.190;2023-05-07T09:43:53;2.30;;;1.17;;
54121;SDS011;40029;58.708;50.190;2023-05-07T09:46:29;2.47;;;1.13;;
54121;SDS011;40029;58.708;50.190;2023-05-07T09:49:08;1.08;;;0.75;;
54121;SDS011;40029;58.708;50.190;2023-05-07T09:51:51;0.57;;;0.47;;
54121;SDS011;40029;58.708;50.190;2023-05-07T09:54:27;3.38;;;0.88;;
54121;SDS011;40029;58.708;50.190;2023-05-07T09:57:02;0.68;;;0.50;;
54121;SDS011;40029;58.708;50.190;2023-05-07T09:59:34;0.60;;;0.40;;
54121;SDS011;40029;58.708;50.190;2023-05-07T10:02:12;0.88;;;0.68;;
54121;SDS011;40029;58.708;50.190;2023-05-07T10:05:04;2.60;;;1.58;;
54121;SDS011;40029;58.708;50.190;2023-05-07T10:07:38;0.95;;;0.77;;
54121;SDS011;40029;58.708;50.190;2023-05-07T10:12:48;1.93;;;1.20;;
54121;SDS011;40029;58.708;50.190;2023-05-07T10:15:29;2.22;;;1.15;;
54121;SDS011;40029;58.708;50.190;2023-05-07T10:18:20;15.52;;;5.53;;
54121;SDS011;40029;58.708;50.190;2023-05-07T10:21:20;5.38;;;2.65;;
54121;SDS011;40029;58.708;50.190;2023-05-07T10:23:59;7.32;;;3.90;;
54121;SDS011;40029;58.708;50.190;2023-05-07T10:26:37;2.13;;;1.45;;
54121;SDS011;40029;58.708;50.190;2023-05-07T10:29:20;2.30;;;1.27;;
54121;SDS011;40029;58.708;50.190;2023-05-07T10:34:47;4.18;;;2.50;;
54121;SDS011;40029;58.708;50.190;2023-05-07T10:37:22;7.88;;;2.10;;
54121;SDS011;40029;58.708;50.190;2023-05-07T10:39:54;7.80;;;1.83;;
54121;SDS011;40029;58.708;50.190;2023-05-07T10:42:25;7.88;;;1.20;;
54121;SDS011;40029;58.708;50.190;2023-05-07T10:45:11;4.25;;;2.17;;
54121;SDS011;40029;58.708;50.190;2023-05-07T10:50:40;4.00;;;1.95;;
54121;SDS011;40029;58.708;50.190;2023-05-07T11:02:00;10.52;;;3.17;;
54121;SDS011;40029;58.708;50.190;2023-05-07T11:04:42;8.88;;;2.88;;
54121;SDS011;40029;58.708;50.190;2023-05-07T11:07:27;3.22;;;1.55;;
54121;SDS011;40029;58.708;50.190;2023-05-07T11:10:04;6.55;;;2.88;;
54121;SDS011;40029;58.708;50.190;2023-05-07T11:12:50;3.03;;;1.73;;
54121;SDS011;40029;58.708;50.190;2023-05-07T11:15:35;1.95;;;1.20;;
54121;SDS011;40029;58.708;50.190;2023-05-07T11:18:14;1.33;;;0.43;;
54121;SDS011;40029;58.708;50.190;2023-05-07T11:20:56;1.02;;;0.65;;
54121;SDS011;40029;58.708;50.190;2023-05-07T11:26:28;1.85;;;1.00;;
54121;SDS011;40029;58.708;50.190;2023-05-07T11:29:03;2.08;;;0.70;;
54121;SDS011;40029;58.708;50.190;2023-05-07T11:31:52;1.77;;;0.65;;
54121;SDS011;40029;58.708;50.190;2023-05-07T11:34:26;1.95;;;1.00;;
54121;SDS011;40029;58.708;50.190;2023-05-07T11:37:00;3.03;;;0.80;;
54121;SDS011;40029;58.708;50.190;2023-05-07T11:40:02;0.50;;;0.50;;
54121;SDS011;40029;58.708;50.190;2023-05-07T11:42:42;0.68;;;0.68;;
54121;SDS011;40029;58.708;50.190;2023-05-07T11:45:14;0.93;;;0.50;;
54121;SDS011;40029;58.708;50.190;2023-05-07T11:47:56;0.73;;;0.50;;
54121;SDS011;40029;58.708;50.190;2023-05-07T11:50:27;0.70;;;0.50;;
54121;SDS011;40029;58.708;50.190;2023-05-07T11:52:58;2.08;;;1.08;;
54121;SDS011;40029;58.708;50.190;2023-05-07T11:55:29;3.63;;;1.90;;
54121;SDS011;40029;58.708;50.190;2023-05-07T11:58:00;3.70;;;1.98;;
54121;SDS011;40029;58.708;50.190;2023-05-07T12:00:31;3.38;;;0.90;;
54121;SDS011;40029;58.708;50.190;2023-05-07T12:03:03;7.47;;;3.13;;
54121;SDS011;40029;58.708;50.190;2023-05-07T12:05:35;21.13;;;9.45;;
54121;SDS011;40029;58.708;50.190;2023-05-07T12:08:07;6.50;;;3.78;;
54121;SDS011;40029;58.708;50.190;2023-05-07T12:10:42;12.25;;;6.72;;
54121;SDS011;40029;58.708;50.190;2023-05-07T12:13:24;5.18;;;2.83;;
54121;SDS011;40029;58.708;50.190;2023-05-07T12:15:56;1.83;;;1.13;;
54121;SDS011;40029;58.708;50.190;2023-05-07T12:18:46;3.13;;;1.90;;
54121;SDS011;40029;58.708;50.190;2023-05-07T12:21:18;3.05;;;1.52;;
54121;SDS011;40029;58.708;50.190;2023-05-07T12:23:50;1.10;;;0.80;;
54121;SDS011;40029;58.708;50.190;2023-05-07T12:26:21;1.77;;;1.23;;
54121;SDS011;40029;58.708;50.190;2023-05-07T12:28:54;2.53;;;2.10;;
54121;SDS011;40029;58.708;50.190;2023-05-07T12:31:27;0.82;;;0.80;;
54121;SDS011;40029;58.708;50.190;2023-05-07T12:33:58;1.88;;;0.93;;
54121;SDS011;40029;58.708;50.190;2023-05-07T12:36:37;1.08;;;0.50;;
54121;SDS011;40029;58.708;50.190;2023-05-07T12:39:09;8.35;;;4.18;;
54121;SDS011;40029;58.708;50.190;2023-05-07T12:41:56;5.20;;;3.00;;
54121;SDS011;40029;58.708;50.190;2023-05-07T12:44:30;2.08;;;1.30;;
54121;SDS011;40029;58.708;50.190;2023-05-07T12:47:02;1.83;;;1.60;;
54121;SDS011;40029;58.708;50.190;2023-05-07T12:49:34;6.45;;;3.72;;
54121;SDS011;40029;58.708;50.190;2023-05-07T12:52:08;4.43;;;2.33;;
54121;SDS011;40029;58.708;50.190;2023-05-07T12:54:42;2.30;;;1.92;;
54121;SDS011;40029;58.708;50.190;2023-05-07T12:57:15;4.28;;;1.55;;
54121;SDS011;40029;58.708;50.190;2023-05-07T12:59:50;6.60;;;2.58;;
54121;SDS011;40029;58.708;50.190;2023-05-07T13:02:21;2.33;;;1.23;;
54121;SDS011;40029;58.708;50.190;2023-05-07T13:05:03;1.98;;;1.23;;
54121;SDS011;40029;58.708;50.190;2023-05-07T13:07:35;1.85;;;1.40;;
54121;SDS011;40029;58.708;50.190;2023-05-07T13:10:07;1.83;;;1.63;;
54121;SDS011;40029;58.708;50.190;2023-05-07T13:12:39;1.88;;;1.20;;
54121;SDS011;40029;58.708;50.190;2023-05-07T13:15:10;3.42;;;1.67;;
54121;SDS011;40029;58.708;50.190;2023-05-07T13:17:41;1.38;;;1.00;;
54121;SDS011;40029;58.708;50.190;2023-05-07T13:20:13;1.55;;;0.68;;
54121;SDS011;40029;58.708;50.190;2023-05-07T13:22:44;2.03;;;1.20;;
54121;SDS011;40029;58.708;50.190;2023-05-07T13:25:33;2.17;;;1.10;;
54121;SDS011;40029;58.708;50.190;2023-05-07T13:28:24;3.50;;;1.00;;
54121;SDS011;40029;58.708;50.190;2023-05-07T13:30:55;3.30;;;2.03;;
54121;SDS011;40029;58.708;50.190;2023-05-07T13:33:26;2.40;;;0.98;;
54121;SDS011;40029;58.708;50.190;2023-05-07T13:35:57;1.23;;;0.90;;
54121;SDS011;40029;58.708;50.190;2023-05-07T13:38:31;2.83;;;0.85;;
54121;SDS011;40029;58.708;50.190;2023-05-07T13:41:20;3.63;;;2.70;;
54121;SDS011;40029;58.708;50.190;2023-05-07T13:43:51;4.07;;;1.95;;
54121;SDS011;40029;58.708;50.190;2023-05-07T13:46:23;4.82;;;3.63;;
54121;SDS011;40029;58.708;50.190;2023-05-07T13:48:54;2.97;;;1.90;;
54121;SDS011;40029;58.708;50.190;2023-05-07T13:51:25;0.93;;;0.73;;
54121;SDS011;40029;58.708;50.190;2023-05-07T13:53:56;1.77;;;1.27;;
54121;SDS011;40029;58.708;50.190;2023-05-07T13:56:29;4.53;;;3.40;;
54121;SDS011;40029;58.708;50.190;2023-05-07T13:59:02;3.63;;;2.25;;
54121;SDS011;40029;58.708;50.190;2023-05-07T14:01:33;2.05;;;1.80;;
54121;SDS011;40029;58.708;50.190;2023-05-07T14:04:04;1.55;;;0.90;;
54121;SDS011;40029;58.708;50.190;2023-05-07T14:06:36;4.85;;;3.08;;
54121;SDS011;40029;58.708;50.190;2023-05-07T14:09:07;6.65;;;2.40;;
54121;SDS011;40029;58.708;50.190;2023-05-07T14:11:39;2.97;;;1.70;;
54121;SDS011;40029;58.708;50.190;2023-05-07T14:14:29;2.53;;;1.58;;
54121;SDS011;40029;58.708;50.190;2023-05-07T14:17:00;4.68;;;2.08;;
54121;SDS011;40029;58.708;50.190;2023-05-07T14:19:32;3.92;;;2.80;;
54121;SDS011;40029;58.708;50.190;2023-05-07T14:22:03;2.80;;;1.80;;
54121;SDS011;40029;58.708;50.190;2023-05-07T14:24:34;2.08;;;1.23;;
54121;SDS011;40029;58.708;50.190;2023-05-07T14:27:05;1.80;;;0.90;;
54121;SDS011;40029;58.708;50.190;2023-05-07T14:29:37;1.67;;;0.88;;
54121;SDS011;40029;58.708;50.190;2023-05-07T14:32:08;1.13;;;0.70;;
54121;SDS011;40029;58.708;50.190;2023-05-07T14:34:39;2.38;;;1.52;;
54121;SDS011;40029;58.708;50.190;2023-05-07T14:37:11;0.43;;;0.43;;
54121;SDS011;40029;58.708;50.190;2023-05-07T14:39:42;0.73;;;0.60;;
54121;SDS011;40029;58.708;50.190;2023-05-07T14:42:13;1.92;;;1.00;;
54121;SDS011;40029;58.708;50.190;2023-05-07T14:44:44;2.85;;;1.42;;
54121;SDS011;40029;58.708;50.190;2023-05-07T14:47:17;0.93;;;0.70;;
54121;SDS011;40029;58.708;50.190;2023-05-07T14:49:48;0.70;;;0.60;;
54121;SDS011;40029;58.708;50.190;2023-05-07T14:52:37;3.63;;;2.08;;
54121;SDS011;40029;58.708;50.190;2023-05-07T14:55:08;0.60;;;0.50;;
54121;SDS011;40029;58.708;50.190;2023-05-07T14:57:39;0.70;;;0.70;;
54121;SDS011;40029;58.708;50.190;2023-05-07T15:00:11;3.15;;;1.67;;
54121;SDS011;40029;58.708;50.190;2023-05-07T15:02:43;3.30;;;1.77;;
54121;SDS011;40029;58.708;50.190;2023-05-07T15:05:14;5.68;;;2.97;;
54121;SDS011;40029;58.708;50.190;2023-05-07T15:07:45;2.80;;;1.15;;
54121;SDS011;40029;58.708;50.190;2023-05-07T15:10:17;0.55;;;0.55;;
54121;SDS011;40029;58.708;50.190;2023-05-07T15:12:48;0.82;;;0.73;;
54121;SDS011;40029;58.708;50.190;2023-05-07T15:15:19;4.43;;;2.38;;
54121;SDS011;40029;58.708;50.190;2023-05-07T15:18:09;5.88;;;2.35;;
54121;SDS011;40029;58.708;50.190;2023-05-07T15:20:40;7.85;;;2.55;;
54121;SDS011;40029;58.708;50.190;2023-05-07T15:23:12;8.02;;;2.65;;
54121;SDS011;40029;58.708;50.190;2023-05-07T15:25:47;14.85;;;4.80;;
54121;SDS011;40029;58.708;50.190;2023-05-07T15:28:19;19.85;;;5.50;;
54121;SDS011;40029;58.708;50.190;2023-05-07T15:31:08;5.95;;;3.25;;
54121;SDS011;40029;58.708;50.190;2023-05-07T15:33:40;5.85;;;2.05;;
54121;SDS011;40029;58.708;50.190;2023-05-07T15:36:11;2.47;;;1.33;;
54121;SDS011;40029;58.708;50.190;2023-05-07T15:38:42;2.58;;;1.10;;
54121;SDS011;40029;58.708;50.190;2023-05-07T15:41:13;5.00;;;0.70;;
54121;SDS011;40029;58.708;50.190;2023-05-07T15:43:47;2.90;;;1.38;;
54121;SDS011;40029;58.708;50.190;2023-05-07T15:46:21;1.65;;;0.82;;